createdAt,value
2023-04-23T00:05:20.194Z,9.80
2023-04-23T00:11:15.753Z,10.00
2023-04-23T00:17:10.133Z,9.90
2023-04-23T00:23:40.672Z,9.90
2023-04-23T00:29:54.007Z,9.90
2023-04-23T00:35:23.684Z,9.80
2023-04-23T00:41:18.222Z,9.70
2023-04-23T00:47:37.693Z,9.70
2023-04-23T00:53:53.456Z,9.70
2023-04-23T00:59:26.359Z,9.60
2023-04-23T01:04:52.695Z,9.70
2023-04-23T01:11:13.574Z,9.70
2023-04-23T01:17:30.558Z,9.70
2023-04-23T01:23:25.056Z,9.80
2023-04-23T01:29:19.551Z,9.90
2023-04-23T01:35:38.258Z,10.00
2023-04-23T01:39:12.065Z,10.10
2023-04-23T01:45:12.205Z,10.10
2023-04-23T01:50:25.119Z,10.10
2023-04-23T01:53:23.734Z,10.10
2023-04-23T01:59:13.046Z,10.10
2023-04-23T02:05:11.058Z,10.00
2023-04-23T02:11:06.806Z,9.80
2023-04-23T02:17:37.672Z,9.80
2023-04-23T02:23:56.294Z,9.80
2023-04-23T02:29:50.721Z,9.80
2023-04-23T02:35:44.012Z,9.70
2023-04-23T02:41:53.615Z,9.60
2023-04-23T02:48:11.775Z,9.50
2023-04-23T02:53:49.923Z,9.50
2023-04-23T02:59:40.797Z,9.40
2023-04-23T03:04:45.549Z,9.30
2023-04-23T03:10:17.626Z,9.30
2023-04-23T03:13:45.802Z,9.20
2023-04-23T03:19:36.745Z,9.20
2023-04-23T03:25:30.054Z,9.10
2023-04-23T03:29:37.036Z,9.00
2023-04-23T03:34:23.516Z,8.90
2023-04-23T03:40:17.464Z,9.00
2023-04-23T03:46:35.216Z,9.00
2023-04-23T03:52:53.740Z,9.10
2023-04-23T03:58:42.357Z,9.00
2023-04-23T04:04:17.346Z,9.00
2023-04-23T04:09:13.839Z,8.90
2023-04-23T04:14:22.226Z,8.90
2023-04-23T04:20:11.681Z,8.80
2023-04-23T04:26:07.997Z,8.90
2023-04-23T04:32:02.838Z,8.90
2023-04-23T04:38:21.942Z,8.80
2023-04-23T04:44:40.487Z,9.00
2023-04-23T04:50:35.168Z,8.90
2023-04-23T04:56:29.689Z,8.90
2023-04-23T05:02:49.875Z,9.00
2023-04-23T05:09:08.445Z,9.10
2023-04-23T05:15:14.703Z,9.10
2023-04-23T05:21:09.380Z,9.20
2023-04-23T05:27:28.003Z,9.30
2023-04-23T05:33:50.414Z,9.60
2023-04-23T05:39:44.405Z,9.70
2023-04-23T05:45:29.427Z,9.80
2023-04-23T05:51:46.803Z,10.10
2023-04-23T05:55:31.354Z,10.40
2023-04-23T05:58:29.992Z,10.40
2023-04-23T06:04:26.026Z,10.50
2023-04-23T06:09:33.160Z,10.50
2023-04-23T06:15:31.362Z,10.70
2023-04-23T06:21:15.875Z,10.70
2023-04-23T06:26:46.248Z,10.70
2023-04-23T06:32:02.725Z,10.80
2023-04-23T06:38:02.937Z,10.80
2023-04-23T06:43:43.906Z,10.90
2023-04-23T06:49:38.118Z,11.10
2023-04-23T06:55:32.012Z,11.20
2023-04-23T07:02:02.549Z,11.40
2023-04-23T07:08:23.807Z,11.60
2023-04-23T07:14:18.247Z,11.80
2023-04-23T07:20:12.886Z,12.00
2023-04-23T07:26:31.444Z,12.30
2023-04-23T07:32:49.964Z,12.40
2023-04-23T07:38:44.529Z,12.30
2023-04-23T07:46:29.829Z,12.30
2023-04-23T07:51:41.814Z,12.60
2023-04-23T07:57:29.508Z,12.90
2023-04-23T08:03:24.206Z,13.00
2023-04-23T08:09:18.591Z,13.20
2023-04-23T08:15:17.245Z,13.20
2023-04-23T08:21:32.880Z,13.50
2023-04-23T08:27:27.395Z,13.70
2023-04-23T08:33:20.672Z,13.80
2023-04-23T08:39:08.024Z,14.20
2023-04-23T08:44:13.085Z,14.40
2023-04-23T08:49:47.176Z,14.50
2023-04-23T08:52:43.107Z,14.60
2023-04-23T08:55:15.962Z,14.70
2023-04-23T08:57:43.064Z,14.70
2023-04-23T09:00:11.025Z,14.70
2023-04-23T09:02:42.012Z,14.80
2023-04-23T09:05:09.448Z,14.80
2023-04-23T09:07:47.204Z,14.60
2023-04-23T09:10:17.700Z,14.40
2023-04-23T09:12:45.584Z,14.40
2023-04-23T09:15:13.287Z,14.30
2023-04-23T09:18:47.351Z,14.20
2023-04-23T09:21:22.928Z,14.00
2023-04-23T09:23:52.880Z,14.00
2023-04-23T09:26:23.944Z,14.00
2023-04-23T09:29:31.332Z,14.00
2023-04-23T09:34:19.267Z,14.00
2023-04-23T09:39:53.659Z,14.00
2023-04-23T09:43:47.240Z,14.00
2023-04-23T09:47:14.987Z,14.00
2023-04-23T09:51:40.641Z,14.00
2023-04-23T09:56:07.356Z,14.10
2023-04-23T10:01:16.968Z,14.30
2023-04-23T10:03:46.908Z,14.30
2023-04-23T10:08:19.691Z,14.30
2023-04-23T10:11:20.501Z,14.40
2023-04-23T10:14:15.355Z,14.50
2023-04-23T10:16:49.237Z,14.50
2023-04-23T10:19:52.018Z,14.60
2023-04-23T10:22:20.101Z,14.60
2023-04-23T10:25:01.031Z,14.60
2023-04-23T10:28:49.288Z,14.60
2023-04-23T10:32:41.695Z,14.30
2023-04-23T10:37:54.826Z,14.10
2023-04-23T10:40:39.437Z,14.10
2023-04-23T10:43:09.344Z,14.30
2023-04-23T10:47:04.535Z,14.40
2023-04-23T10:49:37.564Z,14.90
2023-04-23T10:54:48.748Z,15.00
2023-04-23T10:58:02.067Z,15.10
2023-04-23T11:01:37.790Z,15.10
2023-04-23T11:04:27.679Z,15.20
2023-04-23T11:08:22.948Z,15.10
2023-04-23T11:11:09.093Z,14.80
2023-04-23T11:13:52.208Z,14.90
2023-04-23T11:16:22.710Z,15.00
2023-04-23T11:19:19.059Z,15.10
2023-04-23T11:22:08.313Z,15.20
2023-04-23T11:24:42.936Z,15.10
2023-04-23T11:27:14.281Z,15.00
2023-04-23T11:29:42.531Z,14.90
2023-04-23T11:32:15.903Z,14.90
2023-04-23T11:34:44.658Z,15.00
2023-04-23T11:37:12.227Z,15.00
2023-04-23T11:39:44.254Z,15.10
2023-04-23T11:42:14.676Z,15.20
2023-04-23T11:44:42.195Z,15.10
2023-04-23T11:47:11.381Z,15.00
2023-04-23T11:49:42.966Z,14.70
2023-04-23T11:52:10.569Z,14.50
2023-04-23T11:54:39.911Z,14.20
2023-04-23T11:57:06.934Z,14.20
2023-04-23T12:00:33.709Z,14.30
2023-04-23T12:03:02.368Z,14.40
2023-04-23T12:05:31.123Z,14.60
2023-04-23T12:08:19.001Z,14.60
2023-04-23T12:10:49.697Z,14.60
2023-04-23T12:13:22.758Z,14.80
2023-04-23T12:15:57.634Z,14.90
2023-04-23T12:18:39.312Z,14.90
2023-04-23T12:21:11.659Z,14.80
2023-04-23T12:23:39.519Z,14.60
2023-04-23T12:26:11.870Z,14.30
2023-04-23T12:28:48.056Z,14.30
2023-04-23T12:31:29.070Z,14.50
2023-04-23T12:34:06.614Z,14.50
2023-04-23T12:36:33.927Z,14.60
2023-04-23T12:39:25.851Z,14.50
2023-04-23T12:41:54.407Z,14.50
2023-04-23T12:44:21.506Z,14.30
2023-04-23T12:46:57.444Z,14.20
2023-04-23T12:49:27.113Z,14.20
2023-04-23T12:51:59.098Z,14.30
2023-04-23T12:54:26.683Z,14.30
2023-04-23T12:58:39.020Z,14.60
2023-04-23T13:01:06.034Z,14.50
2023-04-23T13:03:32.959Z,14.40
2023-04-23T13:05:59.895Z,14.40
2023-04-23T13:08:27.140Z,14.30
2023-04-23T13:10:54.022Z,14.40
2023-04-23T13:13:20.938Z,14.40
2023-04-23T13:15:50.985Z,14.40
2023-04-23T13:18:17.867Z,14.40
2023-04-23T13:20:44.883Z,14.50
2023-04-23T13:23:12.342Z,14.60
2023-04-23T13:25:39.221Z,14.60
2023-04-23T13:30:01.878Z,14.70
2023-04-23T13:33:01.944Z,14.70
2023-04-23T13:36:07.800Z,14.80
2023-04-23T13:38:34.801Z,14.80
2023-04-23T13:41:01.689Z,14.80
2023-04-23T13:43:33.616Z,14.70
2023-04-23T13:46:01.277Z,14.80
2023-04-23T13:48:31.149Z,14.80
2023-04-23T13:51:34.573Z,14.90
2023-04-23T13:54:03.407Z,14.90
2023-04-23T13:56:30.912Z,15.00
2023-04-23T13:59:18.177Z,15.00
2023-04-23T14:02:01.831Z,15.10
2023-04-23T14:04:53.276Z,15.00
2023-04-23T14:07:38.657Z,15.00
2023-04-23T14:11:50.819Z,14.80
2023-04-23T14:15:25.743Z,14.70
2023-04-23T14:17:53.160Z,14.70
2023-04-23T14:21:09.246Z,14.60
2023-04-23T14:25:29.750Z,14.60
2023-04-23T14:29:18.129Z,14.60
2023-04-23T14:34:02.550Z,14.60
2023-04-23T14:36:29.379Z,14.50
2023-04-23T14:38:56.315Z,14.50
2023-04-23T14:43:57.151Z,14.40
2023-04-23T14:48:53.058Z,14.30
2023-04-23T14:51:20.100Z,14.30
2023-04-23T14:56:08.928Z,14.40
2023-04-23T15:01:50.468Z,14.50
2023-04-23T15:04:17.618Z,14.60
2023-04-23T15:07:13.376Z,14.60
2023-04-23T15:09:40.951Z,14.60
2023-04-23T15:12:16.525Z,14.60
2023-04-23T15:17:50.685Z,14.50
2023-04-23T15:21:56.449Z,14.50
2023-04-23T15:25:04.611Z,14.50
2023-04-23T15:30:06.301Z,14.50
2023-04-23T15:35:40.828Z,14.40
2023-04-23T15:39:31.627Z,14.30
2023-04-23T15:44:19.035Z,14.30
2023-04-23T15:50:22.473Z,14.20
2023-04-23T15:52:50.431Z,14.30
2023-04-23T15:55:34.008Z,14.20
2023-04-23T15:58:32.989Z,14.20
2023-04-23T16:01:03.082Z,14.10
2023-04-23T16:03:33.049Z,14.00
2023-04-23T16:06:12.032Z,13.90
2023-04-23T16:08:39.433Z,13.90
2023-04-23T16:14:33.466Z,13.70
2023-04-23T16:17:00.482Z,13.50
2023-04-23T16:19:28.456Z,13.50
2023-04-23T16:21:55.514Z,13.50
2023-04-23T16:24:23.192Z,13.40
2023-04-23T16:26:50.109Z,13.40
2023-04-23T16:29:22.593Z,13.40
2023-04-23T16:31:50.219Z,13.40
2023-04-23T16:34:17.275Z,13.40
2023-04-23T16:36:44.141Z,13.40
2023-04-23T16:39:11.523Z,13.30
2023-04-23T16:41:56.520Z,13.20
2023-04-23T16:44:28.067Z,13.10
2023-04-23T16:46:54.900Z,13.10
2023-04-23T16:49:22.110Z,13.10
2023-04-23T16:51:49.106Z,13.00
2023-04-23T16:54:15.935Z,13.00
2023-04-23T16:56:45.393Z,12.80
2023-04-23T16:59:12.726Z,12.70
2023-04-23T17:01:39.574Z,12.70
2023-04-23T17:04:06.835Z,12.70
2023-04-23T17:06:39.444Z,12.70
2023-04-23T17:09:49.774Z,12.70
2023-04-23T17:14:02.531Z,12.70
2023-04-23T17:16:38.169Z,12.50
2023-04-23T17:20:14.003Z,12.30
2023-04-23T17:22:57.209Z,12.10
2023-04-23T17:28:13.621Z,11.90
2023-04-23T17:34:02.892Z,11.70
2023-04-23T17:39:25.534Z,11.70
2023-04-23T17:41:53.085Z,11.70
2023-04-23T17:44:21.948Z,11.70
2023-04-23T17:46:53.461Z,11.70
2023-04-23T17:51:21.537Z,11.40
2023-04-23T17:57:29.853Z,10.70
2023-04-23T18:03:40.322Z,10.50
2023-04-23T18:06:13.728Z,10.30
2023-04-23T18:11:57.293Z,10.10
2023-04-23T18:18:12.658Z,10.10
2023-04-23T18:23:31.405Z,10.10
2023-04-23T18:28:51.566Z,10.20
2023-04-23T18:34:09.822Z,10.30
2023-04-23T18:38:45.991Z,10.10
2023-04-23T18:42:49.770Z,10.10
2023-04-23T18:49:00.872Z,10.10
2023-04-23T18:54:15.116Z,10.10
2023-04-23T18:59:05.329Z,10.10
2023-04-23T19:01:53.408Z,10.10
2023-04-23T19:06:19.005Z,10.00
2023-04-23T19:09:04.100Z,10.10
2023-04-23T19:12:54.601Z,10.10
2023-04-23T19:18:23.459Z,10.10
2023-04-23T19:24:17.343Z,10.20
2023-04-23T19:29:52.537Z,10.30
2023-04-23T19:36:11.402Z,10.30
2023-04-23T19:42:07.127Z,10.30
2023-04-23T19:48:04.688Z,10.30
2023-04-23T19:54:24.669Z,10.30
2023-04-23T20:00:44.260Z,10.40
2023-04-23T20:06:50.923Z,10.50
2023-04-23T20:12:45.590Z,10.50
2023-04-23T20:19:05.125Z,10.60
2023-04-23T20:25:25.573Z,10.60
2023-04-23T20:31:21.441Z,10.50
2023-04-23T20:37:21.462Z,10.50
2023-04-23T20:43:42.441Z,10.50
2023-04-23T20:50:00.898Z,10.50
2023-04-23T20:55:56.628Z,10.50
2023-04-23T21:02:03.704Z,10.50
2023-04-23T21:08:22.275Z,10.60
2023-04-23T21:14:40.748Z,10.60
2023-04-23T21:20:36.026Z,10.60
2023-04-23T21:26:30.904Z,10.50
2023-04-23T21:32:52.115Z,10.60
2023-04-23T21:39:12.912Z,10.60
2023-04-23T21:45:07.797Z,10.70
2023-04-23T21:51:03.596Z,10.70
2023-04-23T21:57:22.265Z,10.70
2023-04-23T22:03:46.532Z,10.70
2023-04-23T22:09:53.447Z,10.70
2023-04-23T22:15:44.398Z,10.70
2023-04-23T22:22:03.952Z,10.70
2023-04-23T22:28:22.367Z,10.70
2023-04-23T22:34:16.809Z,10.80
2023-04-23T22:40:11.575Z,10.80
2023-04-23T22:46:29.909Z,10.80
2023-04-23T22:52:48.376Z,10.80
2023-04-23T22:58:18.991Z,10.80
2023-04-23T23:04:25.343Z,10.70
2023-04-23T23:10:03.807Z,10.50
2023-04-23T23:16:22.112Z,10.30
2023-04-23T23:22:16.432Z,10.20
2023-04-23T23:26:55.968Z,10.10
2023-04-23T23:33:13.577Z,10.10
2023-04-23T23:39:31.857Z,10.10
2023-04-23T23:45:26.395Z,10.10
2023-04-23T23:50:18.778Z,10.20
2023-04-23T23:55:46.369Z,10.10
